sensor_id;sensor_type;location;lat;lon;timestamp;P1;durP1;ratioP1;P2;durP2;ratioP2
35120;SDS011;21297;52.008;4.576;2023-07-31T09:40:43;7.90;;;1.80;;
35120;SDS011;21297;52.008;4.576;2023-07-31T09:43:33;6.72;;;1.95;;
35120;SDS011;21297;52.008;4.576;2023-07-31T09:46:40;7.25;;;2.08;;
35120;SDS011;21297;52.008;4.576;2023-07-31T09:50:22;6.53;;;2.10;;
35120;SDS011;21297;52.008;4.576;2023-07-31T09:57:10;5.22;;;2.00;;
35120;SDS011;21297;52.008;4.576;2023-07-31T10:00:01;7.70;;;2.00;;
35120;SDS011;21297;52.008;4.576;2023-07-31T10:02:47;7.15;;;1.83;;
35120;SDS011;21297;52.008;4.576;2023-07-31T10:05:53;6.10;;;2.30;;
35120;SDS011;21297;52.008;4.576;2023-07-31T10:08:40;8.45;;;2.30;;
35120;SDS011;21297;52.008;4.576;2023-07-31T10:11:30;8.70;;;2.65;;
35120;SDS011;21297;52.008;4.576;2023-07-31T10:14:49;6.38;;;1.67;;
35120;SDS011;21297;52.008;4.576;2023-07-31T10:17:38;6.13;;;1.88;;
35120;SDS011;21297;52.008;4.576;2023-07-31T10:20:24;7.38;;;2.38;;
35120;SDS011;21297;52.008;4.576;2023-07-31T10:23:11;6.72;;;2.03;;
35120;SDS011;21297;52.008;4.576;2023-07-31T10:25:58;8.27;;;2.47;;
35120;SDS011;21297;52.008;4.576;2023-07-31T10:28:50;9.35;;;2.67;;
35120;SDS011;21297;52.008;4.576;2023-07-31T10:31:37;10.38;;;2.25;;
35120;SDS011;21297;52.008;4.576;2023-07-31T10:34:24;8.35;;;2.67;;
35120;SDS011;21297;52.008;4.576;2023-07-31T10:37:26;13.57;;;3.70;;
35120;SDS011;21297;52.008;4.576;2023-07-31T10:40:25;12.73;;;3.67;;
35120;SDS011;21297;52.008;4.576;2023-07-31T10:46:13;13.38;;;3.33;;
35120;SDS011;21297;52.008;4.576;2023-07-31T10:49:08;15.35;;;2.85;;
35120;SDS011;21297;52.008;4.576;2023-07-31T10:51:57;14.52;;;3.15;;
35120;SDS011;21297;52.008;4.576;2023-07-31T10:54:42;14.00;;;3.22;;
35120;SDS011;21297;52.008;4.576;2023-07-31T10:57:29;11.93;;;2.80;;
35120;SDS011;21297;52.008;4.576;2023-07-31T11:00:22;12.55;;;3.42;;
35120;SDS011;21297;52.008;4.576;2023-07-31T11:03:18;14.98;;;3.65;;
35120;SDS011;21297;52.008;4.576;2023-07-31T11:06:10;14.32;;;3.13;;
35120;SDS011;21297;52.008;4.576;2023-07-31T11:08:56;11.88;;;2.80;;
35120;SDS011;21297;52.008;4.576;2023-07-31T11:11:45;13.65;;;2.92;;
35120;SDS011;21297;52.008;4.576;2023-07-31T11:14:31;11.05;;;2.85;;
35120;SDS011;21297;52.008;4.576;2023-07-31T11:17:17;10.80;;;2.88;;
35120;SDS011;21297;52.008;4.576;2023-07-31T11:20:03;13.10;;;3.38;;
35120;SDS011;21297;52.008;4.576;2023-07-31T11:22:51;14.75;;;2.75;;
35120;SDS011;21297;52.008;4.576;2023-07-31T11:25:38;12.43;;;2.90;;
35120;SDS011;21297;52.008;4.576;2023-07-31T11:28:30;10.73;;;3.03;;
35120;SDS011;21297;52.008;4.576;2023-07-31T11:31:20;10.77;;;2.78;;
35120;SDS011;21297;52.008;4.576;2023-07-31T11:34:06;10.40;;;2.85;;
35120;SDS011;21297;52.008;4.576;2023-07-31T11:36:52;10.20;;;2.38;;
35120;SDS011;21297;52.008;4.576;2023-07-31T11:39:41;8.52;;;2.40;;
35120;SDS011;21297;52.008;4.576;2023-07-31T11:42:27;9.82;;;2.47;;
35120;SDS011;21297;52.008;4.576;2023-07-31T11:45:12;12.35;;;2.70;;
35120;SDS011;21297;52.008;4.576;2023-07-31T11:47:58;10.98;;;2.58;;
35120;SDS011;21297;52.008;4.576;2023-07-31T11:50:44;10.75;;;2.47;;
35120;SDS011;21297;52.008;4.576;2023-07-31T11:56:31;12.55;;;2.63;;
35120;SDS011;21297;52.008;4.576;2023-07-31T11:59:17;11.43;;;2.67;;
35120;SDS011;21297;52.008;4.576;2023-07-31T12:02:03;10.25;;;3.03;;
35120;SDS011;21297;52.008;4.576;2023-07-31T12:04:49;9.00;;;2.10;;
35120;SDS011;21297;52.008;4.576;2023-07-31T12:07:48;9.93;;;2.45;;
35120;SDS011;21297;52.008;4.576;2023-07-31T12:10:38;8.27;;;2.22;;
35120;SDS011;21297;52.008;4.576;2023-07-31T12:13:26;9.10;;;2.47;;
35120;SDS011;21297;52.008;4.576;2023-07-31T12:16:11;7.22;;;2.33;;
35120;SDS011;21297;52.008;4.576;2023-07-31T12:18:57;10.05;;;3.22;;
35120;SDS011;21297;52.008;4.576;2023-07-31T12:21:43;8.45;;;2.28;;
35120;SDS011;21297;52.008;4.576;2023-07-31T12:24:29;10.10;;;2.40;;
35120;SDS011;21297;52.008;4.576;2023-07-31T12:27:15;13.35;;;2.70;;
35120;SDS011;21297;52.008;4.576;2023-07-31T12:30:04;11.43;;;2.30;;
35120;SDS011;21297;52.008;4.576;2023-07-31T12:32:50;9.85;;;2.55;;
35120;SDS011;21297;52.008;4.576;2023-07-31T12:35:43;9.25;;;2.60;;
35120;SDS011;21297;52.008;4.576;2023-07-31T12:38:32;9.90;;;2.47;;
35120;SDS011;21297;52.008;4.576;2023-07-31T12:41:37;8.85;;;2.88;;
35120;SDS011;21297;52.008;4.576;2023-07-31T12:45:02;6.03;;;2.35;;
35120;SDS011;21297;52.008;4.576;2023-07-31T12:47:49;9.73;;;2.78;;
35120;SDS011;21297;52.008;4.576;2023-07-31T12:50:35;8.43;;;2.60;;
35120;SDS011;21297;52.008;4.576;2023-07-31T12:53:24;8.52;;;2.60;;
35120;SDS011;21297;52.008;4.576;2023-07-31T12:56:10;9.23;;;2.25;;
35120;SDS011;21297;52.008;4.576;2023-07-31T12:58:58;7.57;;;2.00;;
35120;SDS011;21297;52.008;4.576;2023-07-31T13:01:44;5.40;;;1.70;;
35120;SDS011;21297;52.008;4.576;2023-07-31T13:04:30;5.03;;;1.52;;
35120;SDS011;21297;52.008;4.576;2023-07-31T13:07:15;6.25;;;1.77;;
35120;SDS011;21297;52.008;4.576;2023-07-31T13:10:05;6.15;;;1.73;;
35120;SDS011;21297;52.008;4.576;2023-07-31T13:12:54;5.28;;;1.88;;
35120;SDS011;21297;52.008;4.576;2023-07-31T13:15:41;5.93;;;1.70;;
35120;SDS011;21297;52.008;4.576;2023-07-31T13:18:32;4.63;;;1.70;;
35120;SDS011;21297;52.008;4.576;2023-07-31T13:21:20;5.03;;;1.73;;
35120;SDS011;21297;52.008;4.576;2023-07-31T13:24:08;4.88;;;2.05;;
35120;SDS011;21297;52.008;4.576;2023-07-31T13:26:55;5.75;;;1.70;;
35120;SDS011;21297;52.008;4.576;2023-07-31T13:29:42;6.93;;;1.58;;
35120;SDS011;21297;52.008;4.576;2023-07-31T13:32:27;3.58;;;1.30;;
35120;SDS011;21297;52.008;4.576;2023-07-31T13:35:13;5.90;;;1.10;;
35120;SDS011;21297;52.008;4.576;2023-07-31T13:38:01;3.85;;;1.10;;
35120;SDS011;21297;52.008;4.576;2023-07-31T13:40:47;4.47;;;1.02;;
35120;SDS011;21297;52.008;4.576;2023-07-31T13:43:33;2.75;;;1.30;;
35120;SDS011;21297;52.008;4.576;2023-07-31T13:46:18;3.13;;;1.20;;
35120;SDS011;21297;52.008;4.576;2023-07-31T13:49:04;2.13;;;1.08;;
35120;SDS011;21297;52.008;4.576;2023-07-31T13:51:50;3.05;;;1.10;;
35120;SDS011;21297;52.008;4.576;2023-07-31T13:54:35;1.45;;;0.70;;
35120;SDS011;21297;52.008;4.576;2023-07-31T13:57:21;1.73;;;0.80;;
35120;SDS011;21297;52.008;4.576;2023-07-31T14:00:08;2.53;;;0.70;;
35120;SDS011;21297;52.008;4.576;2023-07-31T14:02:55;1.38;;;0.80;;
35120;SDS011;21297;52.008;4.576;2023-07-31T14:05:40;1.13;;;0.68;;
35120;SDS011;21297;52.008;4.576;2023-07-31T14:08:26;0.63;;;0.52;;
35120;SDS011;21297;52.008;4.576;2023-07-31T14:11:14;0.93;;;0.60;;
35120;SDS011;21297;52.008;4.576;2023-07-31T14:14:01;0.47;;;0.47;;
35120;SDS011;21297;52.008;4.576;2023-07-31T14:16:47;2.20;;;0.70;;
35120;SDS011;21297;52.008;4.576;2023-07-31T14:19:32;1.85;;;0.70;;
35120;SDS011;21297;52.008;4.576;2023-07-31T14:22:28;1.27;;;0.65;;
35120;SDS011;21297;52.008;4.576;2023-07-31T14:25:15;2.05;;;0.63;;
35120;SDS011;21297;52.008;4.576;2023-07-31T14:28:10;2.83;;;0.90;;
35120;SDS011;21297;52.008;4.576;2023-07-31T14:38:46;1.50;;;0.68;;
35120;SDS011;21297;52.008;4.576;2023-07-31T16:25:20;4.35;;;1.30;;
35120;SDS011;21297;52.008;4.576;2023-07-31T16:28:58;4.80;;;0.90;;
35120;SDS011;21297;52.008;4.576;2023-07-31T16:31:50;4.82;;;1.08;;
35120;SDS011;21297;52.008;4.576;2023-07-31T16:34:36;3.85;;;1.10;;
35120;SDS011;21297;52.008;4.576;2023-07-31T16:37:25;4.15;;;1.20;;
35120;SDS011;21297;52.008;4.576;2023-07-31T16:40:16;5.35;;;1.00;;
35120;SDS011;21297;52.008;4.576;2023-07-31T16:43:05;7.85;;;1.55;;
35120;SDS011;21297;52.008;4.576;2023-07-31T16:45:52;7.32;;;1.52;;
35120;SDS011;21297;52.008;4.576;2023-07-31T16:48:41;7.97;;;1.35;;
35120;SDS011;21297;52.008;4.576;2023-07-31T17:44:49;11.75;;;2.30;;
35120;SDS011;21297;52.008;4.576;2023-07-31T17:47:41;13.40;;;2.20;;
35120;SDS011;21297;52.008;4.576;2023-07-31T17:50:26;9.82;;;2.20;;
35120;SDS011;21297;52.008;4.576;2023-07-31T17:53:12;12.35;;;2.55;;
35120;SDS011;21297;52.008;4.576;2023-07-31T17:56:03;13.90;;;2.40;;
35120;SDS011;21297;52.008;4.576;2023-07-31T17:58:49;10.82;;;2.00;;
35120;SDS011;21297;52.008;4.576;2023-07-31T18:01:35;9.90;;;2.50;;
35120;SDS011;21297;52.008;4.576;2023-07-31T18:04:36;15.10;;;2.20;;
35120;SDS011;21297;52.008;4.576;2023-07-31T18:07:28;10.80;;;2.20;;
35120;SDS011;21297;52.008;4.576;2023-07-31T18:10:14;11.55;;;2.55;;
35120;SDS011;21297;52.008;4.576;2023-07-31T18:13:03;15.40;;;2.58;;
35120;SDS011;21297;52.008;4.576;2023-07-31T18:15:48;10.02;;;2.08;;
35120;SDS011;21297;52.008;4.576;2023-07-31T18:18:34;11.50;;;2.45;;
35120;SDS011;21297;52.008;4.576;2023-07-31T18:21:26;12.88;;;2.80;;
35120;SDS011;21297;52.008;4.576;2023-07-31T18:24:12;10.20;;;2.20;;
35120;SDS011;21297;52.008;4.576;2023-07-31T18:26:58;11.77;;;2.42;;
35120;SDS011;21297;52.008;4.576;2023-07-31T18:29:44;10.73;;;1.98;;
35120;SDS011;21297;52.008;4.576;2023-07-31T18:32:30;14.50;;;2.38;;
35120;SDS011;21297;52.008;4.576;2023-07-31T18:35:15;9.27;;;1.92;;
35120;SDS011;21297;52.008;4.576;2023-07-31T18:45:35;12.15;;;2.22;;
35120;SDS011;21297;52.008;4.576;2023-07-31T18:48:21;9.88;;;1.60;;
35120;SDS011;21297;52.008;4.576;2023-07-31T18:54:24;8.73;;;1.95;;
35120;SDS011;21297;52.008;4.576;2023-07-31T19:04:59;8.07;;;1.98;;
35120;SDS011;21297;52.008;4.576;2023-07-31T19:07:54;7.65;;;1.60;;
35120;SDS011;21297;52.008;4.576;2023-07-31T19:10:40;7.00;;;1.67;;
35120;SDS011;21297;52.008;4.576;2023-07-31T19:13:31;7.15;;;1.75;;
35120;SDS011;21297;52.008;4.576;2023-07-31T19:16:17;5.88;;;1.85;;
35120;SDS011;21297;52.008;4.576;2023-07-31T19:19:03;8.38;;;2.03;;
35120;SDS011;21297;52.008;4.576;2023-07-31T19:21:48;4.35;;;1.30;;
35120;SDS011;21297;52.008;4.576;2023-07-31T19:24:40;5.28;;;1.60;;
35120;SDS011;21297;52.008;4.576;2023-07-31T19:27:29;11.48;;;2.35;;
35120;SDS011;21297;52.008;4.576;2023-07-31T19:30:15;13.25;;;1.95;;
35120;SDS011;21297;52.008;4.576;2023-07-31T19:33:00;13.95;;;2.83;;
35120;SDS011;21297;52.008;4.576;2023-07-31T19:36:00;13.63;;;2.50;;
35120;SDS011;21297;52.008;4.576;2023-07-31T19:38:51;11.57;;;2.10;;
35120;SDS011;21297;52.008;4.576;2023-07-31T19:41:37;15.20;;;3.15;;
35120;SDS011;21297;52.008;4.576;2023-07-31T19:44:25;12.10;;;2.38;;
35120;SDS011;21297;52.008;4.576;2023-07-31T19:47:10;14.68;;;3.08;;
35120;SDS011;21297;52.008;4.576;2023-07-31T19:50:02;18.38;;;2.55;;
35120;SDS011;21297;52.008;4.576;2023-07-31T19:52:50;12.45;;;2.10;;
35120;SDS011;21297;52.008;4.576;2023-07-31T19:55:36;13.05;;;3.35;;
35120;SDS011;21297;52.008;4.576;2023-07-31T19:58:22;11.18;;;2.33;;
35120;SDS011;21297;52.008;4.576;2023-07-31T20:01:09;13.15;;;2.63;;
35120;SDS011;21297;52.008;4.576;2023-07-31T20:03:55;12.18;;;2.40;;
35120;SDS011;21297;52.008;4.576;2023-07-31T20:06:42;12.25;;;2.40;;
35120;SDS011;21297;52.008;4.576;2023-07-31T20:09:27;12.98;;;2.38;;
35120;SDS011;21297;52.008;4.576;2023-07-31T20:12:13;11.57;;;2.70;;
35120;SDS011;21297;52.008;4.576;2023-07-31T20:14:59;13.68;;;2.25;;
35120;SDS011;21297;52.008;4.576;2023-07-31T20:17:46;10.65;;;2.38;;
35120;SDS011;21297;52.008;4.576;2023-07-31T20:20:32;11.93;;;2.55;;
35120;SDS011;21297;52.008;4.576;2023-07-31T20:23:17;10.57;;;2.13;;
35120;SDS011;21297;52.008;4.576;2023-07-31T20:26:03;13.50;;;2.15;;
35120;SDS011;21297;52.008;4.576;2023-07-31T20:28:49;14.57;;;2.85;;
35120;SDS011;21297;52.008;4.576;2023-07-31T20:31:35;10.45;;;2.10;;
35120;SDS011;21297;52.008;4.576;2023-07-31T20:34:21;11.43;;;2.05;;
35120;SDS011;21297;52.008;4.576;2023-07-31T20:37:07;12.20;;;2.17;;
35120;SDS011;21297;52.008;4.576;2023-07-31T20:39:55;13.23;;;2.20;;
35120;SDS011;21297;52.008;4.576;2023-07-31T20:42:42;12.25;;;2.00;;
35120;SDS011;21297;52.008;4.576;2023-07-31T20:45:28;11.38;;;2.10;;
35120;SDS011;21297;52.008;4.576;2023-07-31T20:48:17;12.23;;;2.03;;
35120;SDS011;21297;52.008;4.576;2023-07-31T20:51:03;9.32;;;2.03;;
35120;SDS011;21297;52.008;4.576;2023-07-31T20:53:49;8.15;;;1.83;;
35120;SDS011;21297;52.008;4.576;2023-07-31T20:56:36;10.07;;;2.28;;
35120;SDS011;21297;52.008;4.576;2023-07-31T20:59:22;14.27;;;2.22;;
35120;SDS011;21297;52.008;4.576;2023-07-31T21:02:08;8.10;;;1.92;;
35120;SDS011;21297;52.008;4.576;2023-07-31T21:04:54;11.45;;;2.17;;
35120;SDS011;21297;52.008;4.576;2023-07-31T21:07:39;9.07;;;2.00;;
35120;SDS011;21297;52.008;4.576;2023-07-31T21:10:27;11.85;;;2.53;;
35120;SDS011;21297;52.008;4.576;2023-07-31T21:13:13;11.85;;;2.10;;
35120;SDS011;21297;52.008;4.576;2023-07-31T21:15:59;10.52;;;2.30;;
35120;SDS011;21297;52.008;4.576;2023-07-31T21:18:45;13.18;;;2.40;;
35120;SDS011;21297;52.008;4.576;2023-07-31T21:21:30;8.13;;;1.98;;
35120;SDS011;21297;52.008;4.576;2023-07-31T21:24:16;13.70;;;2.38;;
35120;SDS011;21297;52.008;4.576;2023-07-31T21:27:01;13.32;;;2.75;;
35120;SDS011;21297;52.008;4.576;2023-07-31T21:29:47;13.35;;;2.20;;
35120;SDS011;21297;52.008;4.576;2023-07-31T21:32:33;12.80;;;2.00;;
35120;SDS011;21297;52.008;4.576;2023-07-31T21:35:19;12.50;;;2.33;;
35120;SDS011;21297;52.008;4.576;2023-07-31T21:38:07;11.48;;;2.45;;
35120;SDS011;21297;52.008;4.576;2023-07-31T21:40:53;11.07;;;2.42;;
35120;SDS011;21297;52.008;4.576;2023-07-31T21:43:39;9.77;;;1.85;;
35120;SDS011;21297;52.008;4.576;2023-07-31T21:46:30;6.28;;;1.60;;
35120;SDS011;21297;52.008;4.576;2023-07-31T21:49:18;5.82;;;1.52;;
35120;SDS011;21297;52.008;4.576;2023-07-31T21:52:04;7.35;;;1.73;;
35120;SDS011;21297;52.008;4.576;2023-07-31T21:54:50;7.18;;;1.73;;
35120;SDS011;21297;52.008;4.576;2023-07-31T21:57:35;4.47;;;1.65;;
35120;SDS011;21297;52.008;4.576;2023-07-31T22:00:21;6.60;;;1.80;;
35120;SDS011;21297;52.008;4.576;2023-07-31T22:03:07;8.27;;;1.98;;
35120;SDS011;21297;52.008;4.576;2023-07-31T22:05:53;7.15;;;1.75;;
35120;SDS011;21297;52.008;4.576;2023-07-31T22:08:39;5.45;;;1.77;;
35120;SDS011;21297;52.008;4.576;2023-07-31T22:11:25;9.70;;;2.03;;
35120;SDS011;21297;52.008;4.576;2023-07-31T22:14:11;7.78;;;2.50;;
35120;SDS011;21297;52.008;4.576;2023-07-31T22:16:56;6.38;;;2.10;;
35120;SDS011;21297;52.008;4.576;2023-07-31T22:19:42;10.35;;;2.05;;
35120;SDS011;21297;52.008;4.576;2023-07-31T22:22:28;7.50;;;2.17;;
35120;SDS011;21297;52.008;4.576;2023-07-31T22:25:14;8.05;;;2.00;;
35120;SDS011;21297;52.008;4.576;2023-07-31T22:28:00;7.18;;;2.00;;
35120;SDS011;21297;52.008;4.576;2023-07-31T22:30:45;4.32;;;1.65;;
35120;SDS011;21297;52.008;4.576;2023-07-31T22:33:31;5.82;;;1.73;;
35120;SDS011;21297;52.008;4.576;2023-07-31T22:36:17;6.72;;;1.95;;
35120;SDS011;21297;52.008;4.576;2023-07-31T22:39:02;6.18;;;1.65;;
35120;SDS011;21297;52.008;4.576;2023-07-31T22:41:49;7.40;;;1.77;;
35120;SDS011;21297;52.008;4.576;2023-07-31T22:44:35;12.30;;;2.97;;
35120;SDS011;21297;52.008;4.576;2023-07-31T22:47:20;5.45;;;1.95;;
35120;SDS011;21297;52.008;4.576;2023-07-31T22:50:06;7.38;;;1.90;;
35120;SDS011;21297;52.008;4.576;2023-07-31T22:52:53;9.35;;;2.50;;
35120;SDS011;21297;52.008;4.576;2023-07-31T22:55:40;8.70;;;2.47;;
35120;SDS011;21297;52.008;4.576;2023-07-31T22:58:26;10.07;;;2.47;;
35120;SDS011;21297;52.008;4.576;2023-07-31T23:01:11;9.65;;;2.58;;
35120;SDS011;21297;52.008;4.576;2023-07-31T23:03:57;8.95;;;2.47;;
35120;SDS011;21297;52.008;4.576;2023-07-31T23:06:43;13.50;;;2.83;;
35120;SDS011;21297;52.008;4.576;2023-07-31T23:09:28;11.63;;;2.88;;
35120;SDS011;21297;52.008;4.576;2023-07-31T23:12:14;11.35;;;3.25;;
35120;SDS011;21297;52.008;4.576;2023-07-31T23:15:00;15.98;;;2.97;;
35120;SDS011;21297;52.008;4.576;2023-07-31T23:17:45;16.33;;;2.97;;
35120;SDS011;21297;52.008;4.576;2023-07-31T23:20:31;9.80;;;2.97;;
35120;SDS011;21297;52.008;4.576;2023-07-31T23:23:17;11.25;;;2.70;;
35120;SDS011;21297;52.008;4.576;2023-07-31T23:26:03;12.93;;;3.03;;
35120;SDS011;21297;52.008;4.576;2023-07-31T23:28:49;16.15;;;3.78;;
35120;SDS011;21297;52.008;4.576;2023-07-31T23:31:34;10.50;;;3.00;;
35120;SDS011;21297;52.008;4.576;2023-07-31T23:34:20;17.65;;;4.03;;
35120;SDS011;21297;52.008;4.576;2023-07-31T23:37:06;12.18;;;3.40;;
35120;SDS011;21297;52.008;4.576;2023-07-31T23:39:51;16.33;;;3.20;;
35120;SDS011;21297;52.008;4.576;2023-07-31T23:42:37;11.95;;;3.22;;
35120;SDS011;21297;52.008;4.576;2023-07-31T23:45:23;13.38;;;3.60;;
35120;SDS011;21297;52.008;4.576;2023-07-31T23:48:08;13.98;;;3.40;;
35120;SDS011;21297;52.008;4.576;2023-07-31T23:50:56;10.50;;;3.28;;
35120;SDS011;21297;52.008;4.576;2023-07-31T23:53:44;10.80;;;2.95;;
35120;SDS011;21297;52.008;4.576;2023-07-31T23:56:30;17.13;;;3.55;;
35120;SDS011;21297;52.008;4.576;2023-07-31T23:59:15;12.65;;;3.17;;
